Pagrindinis puslapis
METAR-TAF:

METAR-TAF

Oro uostai :

Kaiseris, Turkija

platuma: 38-47N, ilguma: 035-29E, Aukštis: 1053 m

Dabartinis oras

Ataskaita buvo paskelbta 42 minutes, ne 03:20 UTC
Vėjas 2 kt nuo kintamojo kryptimis
Temperatūra 5°C
Drėgmė 81%
Slėgis 1018 hPa
Matomumas 10 km arba daugiau
Mažai debesys ne aukštis 4000 ft
Išsisklaidę debesys ne aukštis 10000 ft

METAR: LTAU 070320Z VRB02KT 9999 FEW040 SCT100 05/02 Q1018 NOSIG RMK RWY07 02003KT

Laikas: 07:02 (04:02 UTC)

Prognozė

Ataskaita buvo paskelbta 5 valandos ir 22 minutes, ne 22:40 UTC
Prognozė galioja nuo 07 metu 00 UTC su 07 metu 24 UTC
Vėjas 8 kt iš Rytų/Šiaurės Rytų
Matomumas 10 km arba daugiau
Išsisklaidę debesys ne aukštis 4000 ft
Su prošvaistėmis ne aukštis 18000 ft
Laikinai
nuo 07 metu 12 UTC su 07 metu 16 UTC
Vėjas 18 kt iš Šiaurės Rytų su gūsio iki 28 kt
Mažai debesys ne aukštis 3000 ft, Liūtiniai kamuoliniai debesys.
Su prošvaistėmis ne aukštis 3500 ft
lietus

TAF: LTAU 062240Z 0700/0724 07008KT 9999 SCT040 BKN180 TEMPO 0712/0716 05018G28KT -SHRA FEW030CB BKN035

Orai ataskaitas ir orų prognozės (METAR, TAF).

turimą stotys yra geltonos ir raudonos taškus žemėlapyje.

Perkelti pele per norėdami pamatyti stoties vardą.

Tada spustelėkite, norėdami matyti oro stebėjimo ir prognozės.

Norėdami pakeisti žemėlapį: spustelėkite ant žalios mygtukų su juodo kryžiaus žemyn,; žalią mygtuką su brūkšneliu, jei norite nutolinti; arba žalių rodyklių gretimoms žemėlapius.


METAR-TAF: